Terminal Aerodrome Forecast
Issued by NWS Atlanta, GA

Home | Current Version | Previous Version | Text Only | Print | Product List | Glossary On
Versions: 1 2 3 4 5 6 7 8 9 10 11 12 13 14 15 16 17 18 19 20 21 22 23 24 25 26
502
FTUS42 KFFC 151120
TAFCSG
TAF
KCSG 151120Z 1512/1612 07006KT P6SM FEW025 SCT250
     FM151500 07010G17KT P6SM FEW035 SCT250
     FM151800 06010G18KT P6SM SCT050 SCT250
     FM160000 06004KT P6SM FEW050 FEW250=

USA.gov is the U.S. government's official web portal to all federal, state and local government web resources and services.